createdAt,value
2022-09-13T00:00:43.859Z,2.60
2022-09-13T00:03:12.237Z,2.75
2022-09-13T00:05:39.581Z,4.90
2022-09-13T00:08:07.657Z,3.58
2022-09-13T00:10:36.100Z,3.10
2022-09-13T00:13:02.684Z,4.65
2022-09-13T00:15:29.948Z,3.83
2022-09-13T00:17:56.628Z,3.05
2022-09-13T00:20:23.960Z,3.20
2022-09-13T00:22:50.346Z,3.23
2022-09-13T00:25:17.071Z,3.35
2022-09-13T00:27:44.686Z,4.45
2022-09-13T00:30:12.547Z,5.70
2022-09-13T00:32:38.992Z,4.00
2022-09-13T00:35:06.663Z,3.40
2022-09-13T00:37:34.185Z,3.33
2022-09-13T00:40:01.893Z,3.83
2022-09-13T00:42:33.739Z,4.43
2022-09-13T00:45:10.863Z,4.40
2022-09-13T00:47:41.340Z,3.45
2022-09-13T00:50:20.974Z,4.90
2022-09-13T00:52:52.372Z,4.53
2022-09-13T00:55:27.684Z,5.60
2022-09-13T00:57:59.243Z,5.15
2022-09-13T01:00:25.647Z,3.47
2022-09-13T01:02:57.976Z,4.57
2022-09-13T01:05:30.547Z,3.92
2022-09-13T01:07:58.209Z,3.42
2022-09-13T01:10:24.904Z,4.82
2022-09-13T01:13:11.348Z,3.47
2022-09-13T01:15:37.704Z,4.30
2022-09-13T01:18:05.923Z,5.45
2022-09-13T01:20:59.015Z,5.72
2022-09-13T01:23:48.666Z,5.32
2022-09-13T01:26:27.760Z,6.13
2022-09-13T01:29:03.051Z,2.80
2022-09-13T01:31:37.277Z,5.72
2022-09-13T01:34:12.997Z,5.93
2022-09-13T01:37:17.720Z,6.18
2022-09-13T01:40:35.997Z,3.40
2022-09-13T01:43:17.455Z,3.50
2022-09-13T01:46:02.304Z,5.30
2022-09-13T01:48:41.163Z,4.43
2022-09-13T01:51:17.027Z,5.70
2022-09-13T01:53:52.520Z,3.87
2022-09-13T01:56:39.883Z,7.55
2022-09-13T01:59:28.976Z,4.63
2022-09-13T02:02:02.683Z,5.05
2022-09-13T02:04:43.932Z,4.15
2022-09-13T02:07:19.132Z,6.53
2022-09-13T02:09:51.113Z,4.05
2022-09-13T02:12:24.548Z,4.55
2022-09-13T02:15:04.736Z,5.70
2022-09-13T02:17:38.336Z,4.90
2022-09-13T02:20:28.192Z,5.03
2022-09-13T02:22:58.856Z,4.22
2022-09-13T02:25:28.168Z,3.85
2022-09-13T02:27:59.847Z,6.45
2022-09-13T02:30:28.554Z,3.17
2022-09-13T02:33:04.511Z,4.20
2022-09-13T02:35:38.645Z,3.78
2022-09-13T02:38:12.938Z,4.97
2022-09-13T02:40:46.743Z,3.75
2022-09-13T02:43:20.549Z,6.35
2022-09-13T02:45:55.751Z,3.50
2022-09-13T02:48:51.910Z,4.13
2022-09-13T02:51:33.751Z,4.05
2022-09-13T02:54:11.772Z,3.63
2022-09-13T02:56:48.132Z,4.03
2022-09-13T02:59:21.843Z,4.13
2022-09-13T03:01:52.879Z,5.18
2022-09-13T03:04:19.496Z,4.53
2022-09-13T03:06:45.991Z,7.18
2022-09-13T03:09:12.939Z,6.15
2022-09-13T03:12:32.580Z,3.63
2022-09-13T03:15:10.085Z,3.20
2022-09-13T03:18:07.012Z,5.75
2022-09-13T03:21:11.881Z,3.58
2022-09-13T03:23:53.408Z,2.83
2022-09-13T03:26:44.572Z,4.17
2022-09-13T03:29:31.745Z,8.13
2022-09-13T03:32:16.808Z,3.83
2022-09-13T03:34:53.623Z,4.50
2022-09-13T03:37:30.087Z,3.90
2022-09-13T03:40:03.431Z,3.75
2022-09-13T03:42:51.019Z,4.05
2022-09-13T03:45:21.713Z,5.28
2022-09-13T03:47:49.833Z,4.40
2022-09-13T03:50:20.527Z,4.07
2022-09-13T03:52:51.729Z,3.87
2022-09-13T03:55:21.523Z,3.17
2022-09-13T03:57:48.043Z,3.80
2022-09-13T04:00:15.260Z,6.47
2022-09-13T04:02:41.621Z,4.95
2022-09-13T04:05:08.132Z,4.37
2022-09-13T04:07:34.482Z,4.72
2022-09-13T04:10:01.225Z,4.63
2022-09-13T04:12:31.848Z,6.82
2022-09-13T04:14:58.357Z,5.25
2022-09-13T04:17:24.704Z,7.45
2022-09-13T04:19:51.855Z,3.53
2022-09-13T04:22:18.396Z,4.25
2022-09-13T04:24:45.036Z,5.15
2022-09-13T04:27:12.654Z,5.10
2022-09-13T04:29:39.067Z,4.28
2022-09-13T04:32:05.675Z,4.25
2022-09-13T04:34:32.112Z,4.68
2022-09-13T04:36:58.611Z,5.18
2022-09-13T04:39:25.114Z,4.30
2022-09-13T04:41:54.419Z,5.20
2022-09-13T04:44:21.629Z,3.50
2022-09-13T04:46:49.271Z,5.90
2022-09-13T04:49:17.067Z,4.03
2022-09-13T04:51:43.852Z,4.18
2022-09-13T04:54:15.277Z,3.37
2022-09-13T04:56:42.561Z,5.68
2022-09-13T04:59:10.833Z,3.95
2022-09-13T05:01:37.570Z,5.55
2022-09-13T05:04:07.573Z,4.00
2022-09-13T05:06:34.554Z,4.53
2022-09-13T05:09:02.071Z,5.95
2022-09-13T05:11:29.668Z,5.10
2022-09-13T05:13:58.234Z,4.65
2022-09-13T05:16:26.902Z,4.50
2022-09-13T05:18:54.383Z,4.75
2022-09-13T05:21:21.660Z,4.32
2022-09-13T05:23:52.186Z,3.90
2022-09-13T05:26:18.855Z,5.68
2022-09-13T05:28:45.205Z,4.65
2022-09-13T05:31:20.515Z,4.57
2022-09-13T05:33:52.502Z,4.72
2022-09-13T05:36:19.653Z,5.13
2022-09-13T05:38:46.365Z,4.72
2022-09-13T05:41:12.851Z,7.47
2022-09-13T05:43:39.190Z,8.43
2022-09-13T05:46:14.134Z,8.23
2022-09-13T05:48:41.404Z,5.22
2022-09-13T05:51:15.974Z,7.70
2022-09-13T05:53:44.670Z,4.68
2022-09-13T05:56:17.005Z,5.30
2022-09-13T05:58:46.115Z,6.50
2022-09-13T06:01:15.521Z,7.70
2022-09-13T06:03:41.934Z,6.82
2022-09-13T06:06:09.009Z,6.22
2022-09-13T06:08:36.416Z,7.75
2022-09-13T06:11:11.504Z,6.70
2022-09-13T06:13:39.117Z,8.57
2022-09-13T06:16:08.176Z,8.20
2022-09-13T06:18:35.975Z,9.50
2022-09-13T06:21:08.800Z,6.97
2022-09-13T06:23:35.649Z,10.40
2022-09-13T06:26:13.456Z,11.68
2022-09-13T06:28:40.329Z,8.57
2022-09-13T06:31:09.794Z,11.07
2022-09-13T06:33:37.833Z,15.38
2022-09-13T06:36:09.432Z,9.35
2022-09-13T06:38:36.018Z,11.32
2022-09-13T06:41:04.775Z,8.02
2022-09-13T06:43:31.206Z,9.50
2022-09-13T06:46:12.268Z,15.27
2022-09-13T06:48:41.181Z,17.30
2022-09-13T06:51:13.044Z,16.52
2022-09-13T06:53:41.030Z,13.82
2022-09-13T06:56:11.282Z,19.85
2022-09-13T06:58:38.748Z,16.13
2022-09-13T07:01:25.430Z,12.80
2022-09-13T07:03:58.861Z,18.17
2022-09-13T07:06:29.031Z,18.92
2022-09-13T07:08:57.037Z,16.30
2022-09-13T07:11:26.910Z,19.55
2022-09-13T07:13:55.676Z,18.90
2022-09-13T07:16:27.215Z,21.10
2022-09-13T07:19:07.653Z,16.48
2022-09-13T07:21:35.708Z,18.35
2022-09-13T07:24:02.573Z,14.82
2022-09-13T07:26:29.185Z,16.70
2022-09-13T07:28:59.263Z,17.65
2022-09-13T07:31:37.894Z,16.35
2022-09-13T07:34:07.453Z,16.00
2022-09-13T07:36:37.240Z,15.70
2022-09-13T07:39:04.794Z,19.42
2022-09-13T07:41:32.752Z,12.52
2022-09-13T07:44:03.128Z,12.90
2022-09-13T07:46:36.492Z,12.25
2022-09-13T07:49:02.920Z,12.07
2022-09-13T07:51:34.684Z,12.40
2022-09-13T07:54:03.739Z,10.23
2022-09-13T07:56:41.382Z,9.05
2022-09-13T07:59:13.116Z,10.93
2022-09-13T08:01:42.078Z,7.40
2022-09-13T08:04:13.975Z,6.40
2022-09-13T08:06:41.501Z,7.63
2022-09-13T08:09:09.288Z,5.22
2022-09-13T08:11:38.606Z,7.25
2022-09-13T08:14:06.984Z,7.50
2022-09-13T08:16:33.871Z,6.17
2022-09-13T08:19:02.806Z,7.70
2022-09-13T08:21:35.479Z,5.18
2022-09-13T08:24:02.641Z,7.70
2022-09-13T08:26:31.674Z,7.55
2022-09-13T08:29:00.337Z,6.63
2022-09-13T08:31:28.030Z,5.70
2022-09-13T08:33:56.010Z,4.93
2022-09-13T08:36:26.523Z,6.70
2022-09-13T08:38:55.753Z,4.15
2022-09-13T08:41:48.744Z,4.90
2022-09-13T08:44:29.488Z,2.72
2022-09-13T08:47:04.536Z,5.40
2022-09-13T08:49:36.283Z,3.70
2022-09-13T08:52:21.859Z,3.20
2022-09-13T08:54:49.887Z,5.23
2022-09-13T08:57:23.822Z,3.47
2022-09-13T09:00:11.805Z,2.95
2022-09-13T09:02:59.381Z,2.20
2022-09-13T09:05:30.107Z,6.93
2022-09-13T09:08:13.055Z,10.23
2022-09-13T09:10:49.424Z,1.45
2022-09-13T09:13:31.611Z,2.95
2022-09-13T09:16:05.966Z,2.17
2022-09-13T09:18:39.930Z,2.17
2022-09-13T09:21:13.399Z,1.70
2022-09-13T09:23:45.994Z,3.58
2022-09-13T09:26:20.844Z,3.65
2022-09-13T09:28:56.171Z,3.40
2022-09-13T09:32:03.175Z,1.38
2022-09-13T09:34:54.449Z,1.57
2022-09-13T09:37:26.276Z,3.25
2022-09-13T09:39:55.801Z,1.95
2022-09-13T09:42:26.446Z,1.15
2022-09-13T09:45:00.714Z,1.70
2022-09-13T09:47:30.286Z,2.70
2022-09-13T09:50:10.223Z,3.17
2022-09-13T09:52:51.511Z,2.00
2022-09-13T09:55:34.984Z,2.63
2022-09-13T09:58:08.298Z,1.15
2022-09-13T10:00:37.077Z,1.07
2022-09-13T10:03:15.286Z,1.65
2022-09-13T10:05:43.919Z,2.92
2022-09-13T10:08:31.843Z,1.45
2022-09-13T10:11:00.282Z,2.75
2022-09-13T10:13:31.593Z,2.10
2022-09-13T10:16:05.018Z,2.67
2022-09-13T10:18:44.522Z,2.10
2022-09-13T10:21:17.453Z,0.60
2022-09-13T10:23:45.880Z,2.42
2022-09-13T10:26:14.189Z,2.20
2022-09-13T10:29:05.967Z,6.22
2022-09-13T10:31:43.168Z,1.45
2022-09-13T10:34:31.655Z,1.90
2022-09-13T10:37:17.273Z,2.45
2022-09-13T10:40:05.966Z,2.67
2022-09-13T10:42:32.755Z,3.15
2022-09-13T10:45:00.773Z,1.60
2022-09-13T10:47:34.374Z,2.10
2022-09-13T10:50:18.996Z,1.35
2022-09-13T10:52:48.570Z,3.63
2022-09-13T10:55:18.593Z,2.58
2022-09-13T10:57:50.801Z,2.60
2022-09-13T11:00:35.499Z,1.75
2022-09-13T11:03:33.616Z,1.40
2022-09-13T11:06:24.455Z,2.73
2022-09-13T11:09:05.072Z,1.73
2022-09-13T11:11:43.268Z,3.50
2022-09-13T11:14:28.405Z,1.63
2022-09-13T11:17:08.050Z,2.28
2022-09-13T11:19:56.756Z,2.97
2022-09-13T11:23:13.555Z,1.08
2022-09-13T11:25:48.840Z,2.63
2022-09-13T11:28:27.855Z,3.88
2022-09-13T11:31:09.720Z,6.13
2022-09-13T11:33:52.128Z,4.57
2022-09-13T11:36:43.140Z,2.00
2022-09-13T11:39:47.384Z,2.95
2022-09-13T11:42:28.482Z,3.88
2022-09-13T11:45:01.576Z,1.00
2022-09-13T11:47:41.763Z,2.83
2022-09-13T11:50:29.232Z,1.33
2022-09-13T11:53:20.488Z,2.92
2022-09-13T11:55:54.433Z,10.48
2022-09-13T11:58:27.719Z,1.00
2022-09-13T12:00:59.164Z,4.37
2022-09-13T12:03:41.377Z,2.22
2022-09-13T12:06:42.053Z,1.67
2022-09-13T12:09:29.739Z,4.07
2022-09-13T12:12:08.127Z,2.42
2022-09-13T12:14:45.561Z,4.47
2022-09-13T12:17:25.807Z,2.17
2022-09-13T12:19:56.388Z,1.60
2022-09-13T12:22:30.706Z,1.50
2022-09-13T12:25:00.330Z,3.33
2022-09-13T12:28:17.975Z,1.90
2022-09-13T12:30:52.071Z,1.58
2022-09-13T12:33:19.710Z,0.82
2022-09-13T12:35:49.108Z,3.70
2022-09-13T12:38:40.828Z,4.18
2022-09-13T12:41:47.410Z,1.33
2022-09-13T12:44:38.722Z,1.65
2022-09-13T12:47:13.768Z,2.65
2022-09-13T12:50:28.552Z,2.83
2022-09-13T12:53:23.661Z,2.90
2022-09-13T12:56:33.551Z,2.83
2022-09-13T12:59:27.488Z,4.75
2022-09-13T13:01:54.520Z,3.55
2022-09-13T13:04:29.053Z,1.60
2022-09-13T13:06:59.020Z,1.50
2022-09-13T13:09:41.164Z,2.10
2022-09-13T13:12:10.316Z,3.50
2022-09-13T13:14:39.629Z,1.60
2022-09-13T13:17:34.548Z,3.60
2022-09-13T13:20:22.034Z,1.77
2022-09-13T13:22:51.864Z,1.27
2022-09-13T13:25:39.029Z,2.88
2022-09-13T13:28:43.102Z,1.90
2022-09-13T13:31:30.613Z,3.72
2022-09-13T13:34:29.459Z,2.40
2022-09-13T13:37:05.417Z,1.70
2022-09-13T13:39:31.808Z,1.20
2022-09-13T13:42:28.019Z,3.22
2022-09-13T13:44:54.304Z,3.13
2022-09-13T13:47:20.749Z,1.88
2022-09-13T13:50:14.656Z,3.33
2022-09-13T13:52:47.192Z,6.05
2022-09-13T13:55:30.111Z,3.25
2022-09-13T13:58:24.896Z,1.38
2022-09-13T14:00:53.424Z,1.40
2022-09-13T14:03:58.512Z,1.43
2022-09-13T14:06:38.610Z,1.50
2022-09-13T14:09:32.922Z,2.40
2022-09-13T14:12:21.424Z,2.20
2022-09-13T14:15:16.064Z,3.63
2022-09-13T14:18:19.993Z,2.93
2022-09-13T14:21:18.367Z,3.00
2022-09-13T14:23:44.946Z,0.82
2022-09-13T14:26:12.094Z,2.83
2022-09-13T14:28:40.252Z,3.28
2022-09-13T14:31:07.523Z,1.57
2022-09-13T14:33:37.476Z,1.83
2022-09-13T14:36:07.937Z,2.33
2022-09-13T14:38:37.278Z,2.03
2022-09-13T14:41:14.364Z,2.95
2022-09-13T14:43:41.124Z,2.90
2022-09-13T14:46:11.778Z,1.55
2022-09-13T14:48:50.184Z,2.55
2022-09-13T14:51:40.344Z,2.05
2022-09-13T14:54:31.476Z,1.75
2022-09-13T14:57:01.605Z,1.23
2022-09-13T14:59:33.328Z,0.85
2022-09-13T15:02:26.380Z,6.72
2022-09-13T15:04:56.464Z,1.17
2022-09-13T15:07:32.190Z,1.83
2022-09-13T15:10:10.896Z,1.23
2022-09-13T15:12:48.609Z,0.77
2022-09-13T15:15:26.340Z,1.75
2022-09-13T15:17:59.895Z,1.58
2022-09-13T15:20:30.732Z,1.88
2022-09-13T15:22:57.891Z,2.20
2022-09-13T15:25:27.518Z,0.98
2022-09-13T15:27:56.555Z,1.88
2022-09-13T15:30:31.839Z,3.08
2022-09-13T15:33:10.659Z,1.08
2022-09-13T15:35:40.049Z,3.27
2022-09-13T15:38:32.448Z,1.05
2022-09-13T15:41:00.799Z,3.50
2022-09-13T15:43:27.566Z,4.95
2022-09-13T15:45:59.006Z,2.90
2022-09-13T15:48:32.137Z,1.73
2022-09-13T15:51:13.115Z,1.40
2022-09-13T15:53:42.358Z,1.88
2022-09-13T15:56:12.863Z,3.33
2022-09-13T15:58:39.456Z,2.88
2022-09-13T16:01:05.978Z,3.92
2022-09-13T16:03:32.681Z,2.13
2022-09-13T16:05:59.390Z,2.67
2022-09-13T16:08:27.402Z,2.92
2022-09-13T16:10:53.815Z,5.03
2022-09-13T16:13:20.158Z,2.50
2022-09-13T16:15:46.628Z,2.58
2022-09-13T16:18:16.424Z,1.30
2022-09-13T16:20:44.085Z,1.27
2022-09-13T16:23:10.749Z,2.08
2022-09-13T16:25:38.568Z,4.05
2022-09-13T16:28:06.780Z,2.55
2022-09-13T16:30:33.785Z,1.00
2022-09-13T16:33:00.906Z,4.28
2022-09-13T16:35:29.873Z,1.77
2022-09-13T16:37:56.242Z,2.45
2022-09-13T16:40:22.905Z,2.75
2022-09-13T16:42:50.084Z,2.55
2022-09-13T16:45:16.536Z,3.33
2022-09-13T16:47:43.088Z,1.80
2022-09-13T16:50:10.079Z,1.30
2022-09-13T16:52:37.095Z,2.50
2022-09-13T16:55:04.976Z,1.52
2022-09-13T16:57:31.796Z,3.72
2022-09-13T16:59:58.662Z,3.13
2022-09-13T17:02:32.735Z,1.50
2022-09-13T17:04:59.481Z,2.67
2022-09-13T17:07:26.128Z,2.33
2022-09-13T17:09:52.708Z,4.43
2022-09-13T17:12:20.723Z,2.78
2022-09-13T17:14:47.630Z,1.90
2022-09-13T17:17:16.174Z,4.07
2022-09-13T17:19:43.929Z,1.98
2022-09-13T17:22:11.162Z,1.90
2022-09-13T17:24:38.594Z,2.88
2022-09-13T17:27:06.956Z,1.38
2022-09-13T17:29:35.196Z,1.00
2022-09-13T17:32:04.619Z,2.67
2022-09-13T17:34:32.426Z,4.82
2022-09-13T17:36:58.785Z,3.33
2022-09-13T17:39:25.096Z,2.20
2022-09-13T17:41:51.503Z,2.67
2022-09-13T17:44:18.194Z,1.38
2022-09-13T17:46:44.577Z,4.85
2022-09-13T17:49:11.068Z,4.50
2022-09-13T17:51:37.412Z,2.85
2022-09-13T17:54:06.440Z,2.20
2022-09-13T17:56:36.302Z,2.42
2022-09-13T17:59:10.171Z,2.88
2022-09-13T18:01:39.176Z,4.63
2022-09-13T18:04:07.867Z,3.60
2022-09-13T18:06:35.510Z,1.95
2022-09-13T18:09:02.501Z,5.15
2022-09-13T18:11:28.884Z,2.95
2022-09-13T18:13:55.436Z,2.08
2022-09-13T18:16:25.771Z,5.40
2022-09-13T18:18:53.365Z,1.55
2022-09-13T18:21:23.163Z,3.80
2022-09-13T18:23:54.265Z,2.08
2022-09-13T18:26:23.468Z,2.57
2022-09-13T18:28:56.022Z,2.40
2022-09-13T18:31:25.030Z,3.67
2022-09-13T18:34:01.944Z,4.30
2022-09-13T18:36:29.612Z,1.67
2022-09-13T18:38:57.183Z,5.57
2022-09-13T18:41:31.140Z,1.92
2022-09-13T18:43:59.557Z,2.47
2022-09-13T18:46:33.621Z,2.92
2022-09-13T18:49:02.353Z,3.90
2022-09-13T18:51:32.066Z,2.42
2022-09-13T18:54:00.507Z,1.42
2022-09-13T18:56:28.600Z,3.72
2022-09-13T18:58:57.462Z,4.15
2022-09-13T19:01:27.661Z,2.10
2022-09-13T19:03:59.395Z,5.05
2022-09-13T19:06:40.373Z,1.85
2022-09-13T19:09:08.910Z,3.22
2022-09-13T19:11:46.945Z,3.33
2022-09-13T19:14:27.523Z,3.28
2022-09-13T19:16:56.798Z,3.93
2022-09-13T19:19:24.284Z,3.20
2022-09-13T19:21:51.208Z,1.77
2022-09-13T19:24:20.473Z,3.45
2022-09-13T19:26:50.537Z,4.57
2022-09-13T19:29:20.609Z,2.93
2022-09-13T19:31:49.136Z,4.53
2022-09-13T19:34:20.295Z,3.15
2022-09-13T19:36:49.293Z,3.00
2022-09-13T19:39:16.247Z,3.03
2022-09-13T19:41:42.642Z,3.17
2022-09-13T19:44:14.729Z,2.97
2022-09-13T19:46:44.308Z,4.05
2022-09-13T19:49:14.427Z,4.68
2022-09-13T19:51:42.137Z,2.13
2022-09-13T19:54:12.228Z,3.47
2022-09-13T19:56:42.825Z,3.80
2022-09-13T19:59:13.693Z,2.83
2022-09-13T20:01:44.228Z,2.70
2022-09-13T20:04:13.321Z,2.95
2022-09-13T20:06:42.166Z,5.43
2022-09-13T20:09:09.840Z,1.45
2022-09-13T20:11:42.205Z,4.22
2022-09-13T20:14:09.859Z,3.38
2022-09-13T20:16:37.804Z,4.25
2022-09-13T20:19:23.627Z,3.87
2022-09-13T20:21:53.264Z,2.72
2022-09-13T20:24:20.118Z,3.22
2022-09-13T20:26:47.731Z,4.45
2022-09-13T20:29:14.939Z,1.27
2022-09-13T20:31:41.339Z,1.40
2022-09-13T20:34:11.666Z,1.42
2022-09-13T20:36:38.584Z,4.57
2022-09-13T20:39:06.518Z,5.03
2022-09-13T20:41:33.243Z,2.78
2022-09-13T20:44:00.809Z,2.83
2022-09-13T20:46:29.228Z,5.95
2022-09-13T20:48:55.780Z,1.90
2022-09-13T20:51:25.267Z,2.53
2022-09-13T20:53:56.581Z,2.90
2022-09-13T20:56:23.637Z,3.47
2022-09-13T20:58:57.100Z,5.10
2022-09-13T21:01:24.838Z,1.75
2022-09-13T21:03:53.766Z,3.83
2022-09-13T21:06:22.414Z,3.13
2022-09-13T21:08:50.335Z,1.27
2022-09-13T21:11:29.182Z,2.70
2022-09-13T21:13:59.333Z,4.47
2022-09-13T21:16:28.989Z,1.35
2022-09-13T21:18:56.509Z,2.55
2022-09-13T21:21:30.138Z,1.67
2022-09-13T21:23:57.783Z,4.53
2022-09-13T21:26:26.950Z,2.17
2022-09-13T21:28:54.261Z,3.00
2022-09-13T21:31:25.306Z,5.97
2022-09-13T21:34:00.277Z,1.63
2022-09-13T21:36:27.554Z,2.90
2022-09-13T21:38:55.950Z,2.63
2022-09-13T21:41:24.303Z,2.42
2022-09-13T21:43:51.271Z,1.92
2022-09-13T21:46:26.051Z,3.70
2022-09-13T21:48:55.523Z,4.05
2022-09-13T21:51:36.172Z,3.38
2022-09-13T21:54:06.586Z,2.60
2022-09-13T21:56:35.706Z,4.90
2022-09-13T21:59:04.063Z,6.97
2022-09-13T22:01:41.189Z,2.42
2022-09-13T22:04:13.184Z,1.75
2022-09-13T22:06:39.569Z,1.73
2022-09-13T22:09:08.064Z,4.55
2022-09-13T22:11:38.668Z,3.70
2022-09-13T22:14:06.354Z,2.35
2022-09-13T22:16:35.827Z,2.33
2022-09-13T22:19:09.426Z,1.13
2022-09-13T22:21:39.334Z,3.75
2022-09-13T22:24:09.148Z,0.90
2022-09-13T22:26:38.301Z,2.40
2022-09-13T22:29:07.743Z,4.72
2022-09-13T22:31:36.678Z,1.00
2022-09-13T22:34:04.191Z,1.05
2022-09-13T22:36:31.068Z,4.43
2022-09-13T22:38:57.772Z,3.78
2022-09-13T22:41:29.581Z,1.98
2022-09-13T22:43:58.343Z,2.92
2022-09-13T22:46:34.039Z,1.52
2022-09-13T22:49:01.388Z,3.13
2022-09-13T22:51:28.690Z,4.07
2022-09-13T22:53:56.327Z,5.63
2022-09-13T22:56:29.280Z,3.85
2022-09-13T22:59:01.846Z,2.88
2022-09-13T23:01:29.768Z,3.50
2022-09-13T23:03:56.783Z,1.00
2022-09-13T23:06:25.626Z,2.53
2022-09-13T23:08:54.453Z,1.85
2022-09-13T23:11:26.586Z,2.60
2022-09-13T23:13:54.959Z,2.00
2022-09-13T23:16:27.506Z,3.10
2022-09-13T23:18:55.488Z,2.53
2022-09-13T23:21:24.680Z,2.30
2022-09-13T23:23:51.433Z,1.35
2022-09-13T23:26:20.025Z,3.40
2022-09-13T23:28:51.908Z,0.75
2022-09-13T23:31:21.807Z,1.67
2022-09-13T23:33:50.676Z,2.70
2022-09-13T23:36:19.535Z,1.80
2022-09-13T23:38:49.054Z,6.23
2022-09-13T23:41:16.508Z,1.02
2022-09-13T23:43:43.377Z,2.08
2022-09-13T23:46:10.452Z,2.47
2022-09-13T23:48:38.136Z,3.15
2022-09-13T23:51:09.460Z,2.93
2022-09-13T23:53:37.166Z,2.65
2022-09-13T23:56:04.554Z,1.58
2022-09-13T23:58:32.063Z,2.45
